createdAt,value
2022-11-20T00:02:11.797Z,87.74
2022-11-20T00:07:13.589Z,87.43
2022-11-20T00:12:15.364Z,86.62
2022-11-20T00:17:17.050Z,86.22
2022-11-20T00:22:18.603Z,86.70
2022-11-20T00:27:20.511Z,86.62
2022-11-20T00:32:22.183Z,87.46
2022-11-20T00:37:23.754Z,87.73
2022-11-20T00:42:25.359Z,87.96
2022-11-20T00:47:27.571Z,87.75
2022-11-20T00:52:29.238Z,87.46
2022-11-20T00:57:30.993Z,87.60
2022-11-20T01:02:32.771Z,86.29
2022-11-20T01:07:34.599Z,86.23
2022-11-20T01:12:36.469Z,85.04
2022-11-20T01:17:38.088Z,85.37
2022-11-20T01:22:40.329Z,86.00
2022-11-20T01:27:42.004Z,86.08
2022-11-20T01:32:43.532Z,86.44
2022-11-20T01:37:45.188Z,86.21
2022-11-20T01:43:13.464Z,86.03
2022-11-20T01:48:15.831Z,85.50
2022-11-20T01:53:20.011Z,85.10
2022-11-20T01:58:24.591Z,84.96
2022-11-20T02:03:27.282Z,85.04
2022-11-20T02:08:29.349Z,84.65
2022-11-20T02:13:46.398Z,85.25
2022-11-20T02:18:48.558Z,85.19
2022-11-20T02:24:08.823Z,85.51
2022-11-20T02:29:10.837Z,85.29
2022-11-20T02:34:12.594Z,85.53
2022-11-20T02:39:14.601Z,85.35
2022-11-20T02:44:16.351Z,86.17
2022-11-20T02:49:18.212Z,86.56
2022-11-20T02:54:19.946Z,86.98
2022-11-20T02:59:21.741Z,87.23
2022-11-20T03:04:23.703Z,87.35
2022-11-20T03:09:25.390Z,87.51
2022-11-20T03:14:27.104Z,88.07
2022-11-20T03:19:28.923Z,87.54
2022-11-20T03:24:30.442Z,87.41
2022-11-20T03:29:32.221Z,87.05
2022-11-20T03:34:33.895Z,87.15
2022-11-20T03:39:35.465Z,86.12
2022-11-20T03:44:37.141Z,85.94
2022-11-20T03:49:38.791Z,85.56
2022-11-20T03:54:40.489Z,86.00
2022-11-20T03:59:42.155Z,86.56
2022-11-20T04:04:43.671Z,85.64
2022-11-20T04:09:45.366Z,86.26
2022-11-20T04:14:47.228Z,86.05
2022-11-20T04:19:51.411Z,86.63
2022-11-20T04:24:53.109Z,86.24
2022-11-20T04:29:55.091Z,86.27
2022-11-20T04:34:56.769Z,86.22
2022-11-20T04:39:58.547Z,86.00
2022-11-20T04:45:00.206Z,85.28
2022-11-20T04:50:01.925Z,85.64
2022-11-20T04:55:04.179Z,85.81
2022-11-20T05:00:06.558Z,86.32
2022-11-20T05:05:08.763Z,86.51
2022-11-20T05:10:10.421Z,87.08
2022-11-20T05:15:12.065Z,87.54
2022-11-20T05:20:13.948Z,87.48
2022-11-20T05:25:15.728Z,87.64
2022-11-20T05:30:17.520Z,86.50
2022-11-20T05:35:19.181Z,86.18
2022-11-20T05:40:20.836Z,85.56
2022-11-20T05:45:22.533Z,85.95
2022-11-20T05:50:24.120Z,85.74
2022-11-20T05:55:25.805Z,85.68
2022-11-20T06:00:27.486Z,85.64
2022-11-20T06:05:29.289Z,85.25
2022-11-20T06:10:30.823Z,85.27
2022-11-20T06:15:32.543Z,85.32
2022-11-20T06:20:39.246Z,85.75
2022-11-20T06:25:43.992Z,85.77
2022-11-20T06:30:46.237Z,85.27
2022-11-20T06:35:48.193Z,84.99
2022-11-20T06:40:49.734Z,84.77
2022-11-20T06:45:54.929Z,84.99
2022-11-20T06:50:57.301Z,84.97
2022-11-20T06:56:00.531Z,85.19
2022-11-20T07:01:04.558Z,85.06
2022-11-20T07:06:06.999Z,85.02
2022-11-20T07:11:09.381Z,85.95
2022-11-20T07:16:11.208Z,86.42
2022-11-20T07:21:12.876Z,87.00
2022-11-20T07:26:14.583Z,86.84
2022-11-20T07:31:19.387Z,86.12
2022-11-20T07:36:21.368Z,85.55
2022-11-20T07:41:23.120Z,85.04
2022-11-20T07:46:24.771Z,84.27
2022-11-20T07:51:27.023Z,82.90
2022-11-20T07:56:28.722Z,83.29
2022-11-20T08:01:30.507Z,82.95
2022-11-20T08:06:32.220Z,83.20
2022-11-20T08:11:52.559Z,82.60
2022-11-20T08:16:54.351Z,83.24
2022-11-20T08:21:56.569Z,83.45
2022-11-20T08:27:00.115Z,83.69
2022-11-20T08:32:01.817Z,82.82
2022-11-20T08:37:04.116Z,83.15
2022-11-20T08:42:09.241Z,82.27
2022-11-20T08:47:10.948Z,82.10
2022-11-20T08:52:12.623Z,82.21
2022-11-20T08:57:14.265Z,80.87
2022-11-20T09:02:16.365Z,81.03
2022-11-20T09:07:18.112Z,80.57
2022-11-20T09:12:19.984Z,81.15
2022-11-20T09:17:21.697Z,80.63
2022-11-20T09:22:23.346Z,80.70
2022-11-20T09:27:25.118Z,79.58
2022-11-20T09:32:26.909Z,80.36
2022-11-20T09:37:28.766Z,79.51
2022-11-20T09:42:36.141Z,79.68
2022-11-20T09:48:21.186Z,77.89
2022-11-20T09:53:36.675Z,77.87
2022-11-20T09:58:44.050Z,76.68
2022-11-20T10:04:07.314Z,77.49
2022-11-20T10:09:31.974Z,77.80
2022-11-20T10:14:57.886Z,76.18
2022-11-20T10:20:21.353Z,74.95
2022-11-20T10:25:34.110Z,74.55
2022-11-20T10:30:41.712Z,73.86
2022-11-20T10:35:46.209Z,73.80
2022-11-20T10:40:53.513Z,73.56
2022-11-20T10:46:10.100Z,71.60
2022-11-20T10:51:30.100Z,70.85
2022-11-20T10:56:53.719Z,70.99
2022-11-20T11:01:55.368Z,70.56
2022-11-20T11:07:20.820Z,71.05
2022-11-20T11:12:25.544Z,70.71
2022-11-20T11:17:30.347Z,71.04
2022-11-20T11:22:34.386Z,71.35
2022-11-20T11:27:47.139Z,72.27
2022-11-20T11:32:49.047Z,73.69
2022-11-20T11:37:51.999Z,74.15
2022-11-20T11:43:00.333Z,74.58
2022-11-20T11:48:04.267Z,75.25
2022-11-20T11:53:14.420Z,76.18
2022-11-20T11:58:34.972Z,75.33
2022-11-20T12:03:38.852Z,75.80
2022-11-20T12:08:47.936Z,75.93
2022-11-20T12:14:02.707Z,76.92
2022-11-20T12:19:09.333Z,76.79
2022-11-20T12:24:30.644Z,76.63
2022-11-20T12:30:03.341Z,77.42
2022-11-20T12:35:23.434Z,77.57
2022-11-20T12:40:31.044Z,78.27
2022-11-20T12:45:41.589Z,77.57
2022-11-20T12:51:14.467Z,77.06
2022-11-20T12:56:29.172Z,77.41
2022-11-20T13:01:53.028Z,78.21
2022-11-20T13:06:55.429Z,78.88
2022-11-20T13:12:12.149Z,78.46
2022-11-20T13:17:39.170Z,78.90
2022-11-20T13:23:00.950Z,77.96
2022-11-20T13:28:22.485Z,78.40
2022-11-20T13:33:35.473Z,78.09
2022-11-20T13:39:07.358Z,78.49
2022-11-20T13:44:16.523Z,78.83
2022-11-20T13:49:32.295Z,78.87
2022-11-20T13:54:55.763Z,78.20
2022-11-20T14:00:14.667Z,78.39
2022-11-20T14:05:22.139Z,78.18
2022-11-20T14:10:33.110Z,78.38
2022-11-20T14:15:39.251Z,78.11
2022-11-20T14:20:44.213Z,78.76
2022-11-20T14:25:46.214Z,79.10
2022-11-20T14:30:52.142Z,79.17
2022-11-20T14:35:56.234Z,79.17
2022-11-20T14:41:20.062Z,80.58
2022-11-20T14:46:22.079Z,80.65
2022-11-20T14:51:31.299Z,81.60
2022-11-20T14:56:32.935Z,82.19
2022-11-20T15:01:35.047Z,82.98
2022-11-20T15:06:37.230Z,83.46
2022-11-20T15:11:38.854Z,83.67
2022-11-20T15:16:40.685Z,84.32
2022-11-20T15:21:42.328Z,84.12
2022-11-20T15:26:44.613Z,84.69
2022-11-20T15:31:46.500Z,85.04
2022-11-20T15:36:48.159Z,85.43
2022-11-20T15:41:49.834Z,85.47
2022-11-20T15:46:51.702Z,85.59
2022-11-20T15:51:54.916Z,85.54
2022-11-20T15:56:56.540Z,85.28
2022-11-20T16:01:58.335Z,85.67
2022-11-20T16:07:00.155Z,85.50
2022-11-20T16:12:01.941Z,85.13
2022-11-20T16:17:08.552Z,84.89
2022-11-20T16:22:12.089Z,85.11
2022-11-20T16:27:13.778Z,85.91
2022-11-20T16:32:15.416Z,85.48
2022-11-20T16:37:17.060Z,85.52
2022-11-20T16:42:18.783Z,86.06
2022-11-20T16:47:20.435Z,85.88
2022-11-20T16:52:26.530Z,86.26
2022-11-20T16:57:29.795Z,86.86
2022-11-20T17:02:33.787Z,87.39
2022-11-20T17:07:35.494Z,86.38
2022-11-20T17:12:37.142Z,87.49
2022-11-20T17:17:38.787Z,87.56
2022-11-20T17:22:42.883Z,87.62
2022-11-20T17:27:44.562Z,88.13
2022-11-20T17:32:49.054Z,87.53
2022-11-20T17:37:51.803Z,87.41
2022-11-20T17:42:53.434Z,87.29
2022-11-20T17:47:55.136Z,86.96
2022-11-20T17:52:56.845Z,87.26
2022-11-20T17:58:03.128Z,87.32
2022-11-20T18:03:04.808Z,87.19
2022-11-20T18:08:06.579Z,87.44
2022-11-20T18:13:08.264Z,87.13
2022-11-20T18:18:10.124Z,87.46
2022-11-20T18:23:11.777Z,87.38
2022-11-20T18:28:13.461Z,87.62
2022-11-20T18:33:15.146Z,86.54
2022-11-20T18:38:16.780Z,86.69
2022-11-20T18:43:39.064Z,86.40
2022-11-20T18:48:40.835Z,86.58
2022-11-20T18:53:47.092Z,86.63
2022-11-20T18:58:49.532Z,86.84
2022-11-20T19:03:51.174Z,86.14
2022-11-20T19:08:53.339Z,87.15
2022-11-20T19:13:55.334Z,87.59
2022-11-20T19:19:03.217Z,87.44
2022-11-20T19:24:05.396Z,88.07
2022-11-20T19:29:07.346Z,87.68
2022-11-20T19:34:09.269Z,87.20
2022-11-20T19:39:11.571Z,86.74
2022-11-20T19:44:15.195Z,86.67
2022-11-20T19:49:22.853Z,87.57
2022-11-20T19:54:25.084Z,88.01
2022-11-20T19:59:30.620Z,88.23
2022-11-20T20:04:32.399Z,88.97
2022-11-20T20:09:35.016Z,88.42
2022-11-20T20:14:36.793Z,89.53
2022-11-20T20:19:38.496Z,89.33
2022-11-20T20:24:40.256Z,89.52
2022-11-20T20:29:42.014Z,89.04
2022-11-20T20:34:43.753Z,88.79
2022-11-20T20:39:45.626Z,88.98
2022-11-20T20:45:05.883Z,88.64
2022-11-20T20:50:10.589Z,88.81
2022-11-20T20:55:12.387Z,88.03
2022-11-20T21:00:14.663Z,88.87
2022-11-20T21:05:16.527Z,89.45
2022-11-20T21:10:23.504Z,88.98
2022-11-20T21:15:25.497Z,88.60
2022-11-20T21:20:45.446Z,89.44
2022-11-20T21:25:47.108Z,89.59
2022-11-20T21:30:49.041Z,89.21
2022-11-20T21:35:50.706Z,89.27
2022-11-20T21:40:52.441Z,88.82
2022-11-20T21:45:56.618Z,88.65
2022-11-20T21:51:06.967Z,89.29
2022-11-20T21:56:10.399Z,89.23
2022-11-20T22:01:20.874Z,88.98
2022-11-20T22:06:23.537Z,89.15
2022-11-20T22:11:25.172Z,89.11
2022-11-20T22:16:27.062Z,88.70
2022-11-20T22:21:30.193Z,88.52
2022-11-20T22:26:39.872Z,88.05
2022-11-20T22:31:42.568Z,87.87
2022-11-20T22:36:44.673Z,87.51
2022-11-20T22:41:46.333Z,88.00
2022-11-20T22:46:47.949Z,87.76
2022-11-20T22:51:49.591Z,87.92
2022-11-20T22:56:51.243Z,88.85
2022-11-20T23:01:53.110Z,89.36
2022-11-20T23:06:54.743Z,90.06
2022-11-20T23:11:56.360Z,90.62
2022-11-20T23:16:58.042Z,91.74
2022-11-20T23:21:59.686Z,92.01
2022-11-20T23:27:01.323Z,92.88
2022-11-20T23:32:02.937Z,92.87
2022-11-20T23:37:04.564Z,93.03
2022-11-20T23:42:06.235Z,92.38
2022-11-20T23:47:07.834Z,92.78
2022-11-20T23:52:09.514Z,93.55
2022-11-20T23:57:11.167Z,93.78
